createdAt,value
2018-08-03T00:02:14.353Z,26.00
2018-08-03T00:07:11.497Z,25.80
2018-08-03T00:09:40.322Z,25.80
2018-08-03T00:12:09.001Z,25.80
2018-08-03T00:14:38.942Z,25.80
2018-08-03T00:17:07.652Z,25.80
2018-08-03T00:19:36.353Z,25.70
2018-08-03T00:22:05.101Z,25.70
2018-08-03T00:24:33.782Z,25.70
2018-08-03T00:27:08.611Z,25.70
2018-08-03T00:29:37.360Z,25.60
2018-08-03T00:32:06.078Z,25.50
2018-08-03T00:34:34.784Z,25.50
2018-08-03T00:37:03.525Z,25.40
2018-08-03T00:39:32.245Z,25.40
2018-08-03T00:42:00.955Z,25.40
2018-08-03T00:44:29.623Z,25.30
2018-08-03T00:46:58.365Z,25.30
2018-08-03T00:49:27.117Z,25.20
2018-08-03T00:51:55.862Z,25.10
2018-08-03T00:54:24.714Z,25.20
2018-08-03T00:56:53.485Z,25.10
2018-08-03T00:59:22.245Z,25.10
2018-08-03T01:01:50.986Z,25.00
2018-08-03T01:04:19.755Z,25.00
2018-08-03T01:06:48.509Z,24.90
2018-08-03T01:09:17.217Z,24.90
2018-08-03T01:12:06.651Z,24.80
2018-08-03T01:14:35.369Z,24.80
2018-08-03T01:17:04.062Z,24.80
2018-08-03T01:19:32.737Z,24.80
2018-08-03T01:22:01.441Z,24.80
2018-08-03T01:24:30.121Z,24.70
2018-08-03T01:26:58.850Z,24.60
2018-08-03T01:29:27.569Z,24.60
2018-08-03T01:31:56.254Z,24.60
2018-08-03T01:34:24.930Z,24.50
2018-08-03T01:36:53.602Z,24.50
2018-08-03T01:39:22.357Z,24.50
2018-08-03T01:41:51.077Z,24.40
2018-08-03T01:44:19.832Z,24.40
2018-08-03T01:46:48.621Z,24.30
2018-08-03T01:49:17.332Z,24.30
2018-08-03T01:51:46.090Z,24.20
2018-08-03T01:54:14.786Z,24.20
2018-08-03T01:56:43.517Z,24.10
2018-08-03T01:59:12.282Z,24.10
2018-08-03T02:01:40.975Z,24.10
2018-08-03T02:06:38.139Z,24.00
2018-08-03T02:09:07.917Z,23.80
2018-08-03T02:11:36.717Z,23.70
2018-08-03T02:14:05.484Z,23.60
2018-08-03T02:16:34.167Z,23.50
2018-08-03T02:19:02.840Z,23.50
2018-08-03T02:21:31.605Z,23.50
2018-08-03T02:24:00.457Z,23.50
2018-08-03T02:26:29.150Z,23.50
2018-08-03T02:28:57.850Z,23.50
2018-08-03T02:31:26.672Z,23.50
2018-08-03T02:33:55.461Z,23.50
2018-08-03T02:36:24.359Z,23.50
2018-08-03T02:38:53.116Z,23.50
2018-08-03T02:41:21.830Z,23.40
2018-08-03T02:43:50.534Z,23.40
2018-08-03T02:46:19.234Z,23.40
2018-08-03T02:51:16.348Z,23.30
2018-08-03T02:53:45.062Z,23.20
2018-08-03T02:56:13.782Z,23.20
2018-08-03T03:01:10.985Z,23.00
2018-08-03T03:03:39.671Z,23.00
2018-08-03T03:06:08.389Z,23.00
2018-08-03T03:08:37.118Z,22.90
2018-08-03T03:13:35.325Z,22.90
2018-08-03T03:16:04.015Z,22.90
2018-08-03T03:18:32.757Z,22.90
2018-08-03T03:21:01.502Z,22.90
2018-08-03T03:23:30.201Z,22.80
2018-08-03T03:25:58.885Z,22.80
2018-08-03T03:28:27.570Z,22.80
2018-08-03T03:30:56.293Z,22.80
2018-08-03T03:33:25.098Z,22.80
2018-08-03T03:35:53.813Z,22.70
2018-08-03T03:38:22.532Z,22.70
2018-08-03T03:40:51.254Z,22.70
2018-08-03T03:45:48.343Z,22.60
2018-08-03T03:48:17.243Z,22.50
2018-08-03T03:50:45.965Z,22.50
2018-08-03T03:53:14.693Z,22.40
2018-08-03T03:58:36.773Z,22.40
2018-08-03T04:01:05.694Z,22.40
2018-08-03T04:03:34.410Z,22.30
2018-08-03T04:06:03.212Z,22.30
2018-08-03T04:08:31.917Z,22.30
2018-08-03T04:11:00.711Z,22.30
2018-08-03T04:13:29.375Z,22.30
2018-08-03T04:15:58.094Z,22.30
2018-08-03T04:18:26.833Z,22.40
2018-08-03T04:20:55.573Z,22.30
2018-08-03T04:23:24.280Z,22.20
2018-08-03T04:25:52.981Z,22.10
2018-08-03T04:28:21.689Z,22.10
2018-08-03T04:30:50.440Z,22.10
2018-08-03T04:33:19.177Z,22.10
2018-08-03T04:35:47.881Z,22.10
2018-08-03T04:38:16.612Z,22.10
2018-08-03T04:40:45.242Z,22.20
2018-08-03T04:43:13.979Z,22.20
2018-08-03T04:45:42.708Z,22.20
2018-08-03T04:48:11.368Z,22.20
2018-08-03T04:50:40.191Z,22.30
2018-08-03T04:53:09.083Z,22.30
2018-08-03T04:55:37.796Z,22.30
2018-08-03T04:58:06.522Z,22.20
2018-08-03T05:00:35.334Z,22.30
2018-08-03T05:03:04.065Z,22.30
2018-08-03T05:05:32.760Z,22.30
2018-08-03T05:08:01.575Z,22.30
2018-08-03T05:10:30.293Z,22.40
2018-08-03T05:12:59.017Z,22.40
2018-08-03T05:15:27.758Z,22.40
2018-08-03T05:20:25.836Z,22.40
2018-08-03T05:22:54.573Z,22.40
2018-08-03T05:25:23.364Z,22.50
2018-08-03T05:27:52.067Z,22.50
2018-08-03T05:30:20.852Z,22.50
2018-08-03T05:32:49.565Z,22.50
2018-08-03T05:35:22.241Z,22.60
2018-08-03T05:37:50.979Z,22.60
2018-08-03T05:40:19.778Z,22.60
2018-08-03T05:42:48.483Z,22.60
2018-08-03T05:45:17.189Z,22.60
2018-08-03T05:48:04.229Z,22.70
2018-08-03T05:50:33.055Z,22.70
2018-08-03T05:53:01.774Z,22.70
2018-08-03T05:55:30.573Z,22.70
2018-08-03T05:57:59.347Z,22.80
2018-08-03T06:00:28.082Z,22.80
2018-08-03T06:03:08.710Z,22.70
2018-08-03T06:05:37.408Z,22.70
2018-08-03T06:08:06.204Z,22.70
2018-08-03T06:10:34.860Z,22.70
2018-08-03T06:13:03.658Z,22.80
2018-08-03T06:15:32.378Z,22.90
2018-08-03T06:18:01.107Z,22.90
2018-08-03T06:20:29.858Z,23.00
2018-08-03T06:22:58.549Z,23.00
2018-08-03T06:25:38.097Z,23.10
2018-08-03T06:28:06.809Z,23.20
2018-08-03T06:30:35.516Z,23.20
2018-08-03T06:33:04.277Z,23.20
2018-08-03T06:35:33.018Z,23.30
2018-08-03T06:38:01.881Z,23.30
2018-08-03T06:40:30.609Z,23.30
2018-08-03T06:43:06.272Z,23.40
2018-08-03T06:45:34.993Z,23.50
2018-08-03T06:48:03.710Z,23.50
2018-08-03T06:53:16.281Z,23.70
2018-08-03T06:55:45.230Z,23.80
2018-08-03T06:58:13.953Z,23.90
2018-08-03T07:00:42.677Z,24.00
2018-08-03T07:03:11.449Z,24.00
2018-08-03T07:05:40.127Z,24.10
2018-08-03T07:08:08.817Z,24.10
2018-08-03T07:10:48.322Z,24.20
2018-08-03T07:13:17.029Z,24.30
2018-08-03T07:15:45.773Z,24.30
2018-08-03T07:18:14.541Z,24.40
2018-08-03T07:20:43.365Z,24.50
2018-08-03T07:23:12.041Z,24.60
2018-08-03T07:25:40.849Z,24.70
2018-08-03T07:28:09.604Z,24.80
2018-08-03T07:30:47.484Z,24.90
2018-08-03T07:33:16.149Z,25.00
2018-08-03T07:35:48.661Z,25.10
2018-08-03T07:38:17.425Z,25.20
2018-08-03T07:40:46.153Z,25.20
2018-08-03T07:43:15.007Z,25.30
2018-08-03T07:45:43.618Z,25.40
2018-08-03T07:48:14.346Z,25.50
2018-08-03T07:50:43.127Z,25.60
2018-08-03T07:53:11.829Z,25.70
2018-08-03T07:55:40.595Z,25.80
2018-08-03T07:58:09.333Z,25.80
2018-08-03T08:00:38.053Z,25.90
2018-08-03T08:03:06.711Z,26.00
2018-08-03T08:05:35.533Z,26.10
2018-08-03T08:08:04.229Z,26.20
2018-08-03T08:10:32.938Z,26.30
2018-08-03T08:13:01.617Z,26.40
2018-08-03T08:15:31.677Z,26.50
2018-08-03T08:18:00.326Z,26.60
2018-08-03T08:20:29.018Z,26.70
2018-08-03T08:23:03.753Z,26.80
2018-08-03T08:25:32.493Z,26.90
2018-08-03T08:28:01.177Z,27.00
2018-08-03T08:30:30.410Z,27.10
2018-08-03T08:33:17.177Z,27.20
2018-08-03T08:35:45.915Z,27.20
2018-08-03T08:38:14.628Z,27.40
2018-08-03T08:40:49.965Z,27.40
2018-08-03T08:43:21.778Z,27.50
2018-08-03T08:45:59.416Z,27.50
2018-08-03T08:48:28.153Z,27.60
2018-08-03T08:50:56.958Z,27.70
2018-08-03T08:53:25.775Z,27.80
2018-08-03T08:55:54.516Z,27.90
2018-08-03T08:58:23.222Z,28.00
2018-08-03T09:00:51.988Z,28.10
2018-08-03T09:03:20.777Z,28.20
2018-08-03T09:05:49.553Z,28.30
2018-08-03T09:08:18.416Z,28.40
2018-08-03T09:10:47.130Z,28.50
2018-08-03T09:15:44.709Z,28.60
2018-08-03T09:18:13.421Z,28.60
2018-08-03T09:20:44.101Z,28.70
2018-08-03T09:23:12.809Z,28.90
2018-08-03T09:25:41.494Z,29.00
2018-08-03T09:30:46.193Z,29.20
2018-08-03T09:33:14.917Z,29.30
2018-08-03T09:35:43.562Z,29.40
2018-08-03T09:38:12.344Z,29.50
2018-08-03T09:40:49.994Z,29.50
2018-08-03T09:43:18.706Z,29.70
2018-08-03T09:45:47.429Z,29.80
2018-08-03T09:48:16.182Z,29.90
2018-08-03T09:50:44.918Z,30.00
2018-08-03T09:53:17.817Z,30.00
2018-08-03T09:55:46.597Z,30.10
2018-08-03T09:58:15.290Z,30.30
2018-08-03T10:00:50.662Z,30.40
2018-08-03T10:03:19.343Z,30.40
2018-08-03T10:05:48.005Z,30.50
2018-08-03T10:08:16.830Z,30.60
2018-08-03T10:10:45.488Z,30.60
2018-08-03T10:13:14.947Z,30.70
2018-08-03T10:15:43.830Z,30.70
2018-08-03T10:18:12.566Z,30.70
2018-08-03T10:20:41.349Z,30.70
2018-08-03T10:23:10.157Z,30.90
2018-08-03T10:25:38.888Z,30.80
2018-08-03T10:28:07.633Z,30.90
2018-08-03T10:30:36.421Z,30.90
2018-08-03T10:33:05.150Z,30.90
2018-08-03T10:35:33.809Z,30.90
2018-08-03T10:38:02.527Z,31.00
2018-08-03T10:40:31.293Z,31.10
2018-08-03T10:43:00.267Z,31.20
2018-08-03T10:45:29.920Z,31.20
2018-08-03T10:48:04.873Z,31.30
2018-08-03T10:50:37.554Z,31.50
2018-08-03T10:53:06.635Z,31.40
2018-08-03T10:55:35.589Z,31.30
2018-08-03T10:58:04.324Z,31.50
2018-08-03T11:00:33.187Z,31.50
2018-08-03T11:03:04.541Z,31.50
2018-08-03T11:05:33.498Z,31.40
2018-08-03T11:08:03.466Z,31.30
2018-08-03T11:10:32.195Z,31.20
2018-08-03T11:13:07.726Z,31.20
2018-08-03T11:15:36.475Z,31.20
2018-08-03T11:18:05.177Z,31.20
2018-08-03T11:20:33.903Z,31.40
2018-08-03T11:23:02.637Z,31.70
2018-08-03T11:25:35.381Z,31.80
2018-08-03T11:28:04.059Z,31.90
2018-08-03T11:30:33.046Z,32.00
2018-08-03T11:33:01.738Z,32.00
2018-08-03T11:35:30.408Z,32.10
2018-08-03T11:37:59.152Z,32.10
2018-08-03T11:40:27.833Z,32.10
2018-08-03T11:42:56.538Z,32.10
2018-08-03T11:45:25.289Z,31.90
2018-08-03T11:48:03.790Z,31.90
2018-08-03T11:50:32.489Z,31.90
2018-08-03T11:53:07.315Z,32.10
2018-08-03T11:55:45.876Z,32.20
2018-08-03T11:58:14.657Z,32.40
2018-08-03T12:01:02.747Z,32.40
2018-08-03T12:06:26.890Z,32.60
2018-08-03T12:08:55.593Z,32.60
2018-08-03T12:11:24.321Z,32.60
2018-08-03T12:13:53.138Z,32.60
2018-08-03T12:16:21.775Z,32.70
2018-08-03T12:18:50.617Z,32.80
2018-08-03T12:21:19.397Z,33.00
2018-08-03T12:23:48.107Z,33.00
2018-08-03T12:26:16.818Z,33.10
2018-08-03T12:28:45.593Z,33.20
2018-08-03T12:31:20.636Z,33.30
2018-08-03T12:33:49.211Z,33.30
2018-08-03T12:36:17.926Z,33.50
2018-08-03T12:38:53.496Z,33.60
2018-08-03T12:41:22.273Z,33.60
2018-08-03T12:43:51.037Z,33.60
2018-08-03T12:46:19.850Z,33.60
2018-08-03T12:48:48.548Z,33.60
2018-08-03T12:51:19.450Z,33.70
2018-08-03T12:53:48.153Z,33.70
2018-08-03T12:56:17.141Z,33.90
2018-08-03T12:58:45.956Z,33.90
2018-08-03T13:01:14.736Z,33.90
2018-08-03T13:03:43.557Z,33.90
2018-08-03T13:06:12.295Z,33.90
2018-08-03T13:08:41.107Z,33.90
2018-08-03T13:11:10.933Z,34.00
2018-08-03T13:13:39.805Z,34.20
2018-08-03T13:16:08.559Z,34.20
2018-08-03T13:18:37.373Z,34.30
2018-08-03T13:21:17.668Z,34.40
2018-08-03T13:23:56.320Z,34.50
2018-08-03T13:26:25.565Z,34.60
2018-08-03T13:28:55.799Z,34.70
2018-08-03T13:31:25.656Z,34.90
2018-08-03T13:33:54.787Z,35.00
2018-08-03T13:36:25.860Z,35.10
2018-08-03T13:38:54.568Z,35.10
2018-08-03T13:41:23.321Z,35.10
2018-08-03T13:43:52.053Z,35.10
2018-08-03T13:46:25.909Z,35.20
2018-08-03T13:48:54.702Z,35.30
2018-08-03T13:51:31.062Z,35.40
2018-08-03T13:53:59.860Z,35.50
2018-08-03T13:56:46.435Z,35.60
2018-08-03T13:59:15.203Z,35.60
2018-08-03T14:01:55.336Z,35.70
2018-08-03T14:04:24.091Z,35.80
2018-08-03T14:06:52.804Z,35.80
2018-08-03T14:09:21.561Z,35.80
2018-08-03T14:11:50.243Z,35.80
2018-08-03T14:14:18.958Z,35.60
2018-08-03T14:16:58.569Z,35.40
2018-08-03T14:19:27.541Z,35.30
2018-08-03T14:21:56.195Z,35.40
2018-08-03T14:24:24.981Z,35.40
2018-08-03T14:26:53.860Z,35.40
2018-08-03T14:29:22.630Z,35.40
2018-08-03T14:31:51.486Z,35.50
2018-08-03T14:34:26.409Z,35.50
2018-08-03T14:36:55.241Z,35.50
2018-08-03T14:39:24.006Z,35.60
2018-08-03T14:41:52.763Z,35.60
2018-08-03T14:44:21.509Z,35.70
2018-08-03T14:47:00.018Z,35.70
2018-08-03T14:49:28.785Z,35.70
2018-08-03T14:54:57.429Z,35.60
2018-08-03T14:57:26.229Z,35.70
2018-08-03T15:00:02.753Z,35.70
2018-08-03T15:02:31.472Z,35.80
2018-08-03T15:05:00.361Z,35.80
2018-08-03T15:07:29.230Z,35.80
2018-08-03T15:09:57.933Z,35.80
2018-08-03T15:12:26.819Z,35.90
2018-08-03T15:14:55.489Z,36.00
2018-08-03T15:17:24.213Z,35.90
2018-08-03T15:19:52.902Z,35.90
2018-08-03T15:22:25.229Z,35.90
2018-08-03T15:24:54.048Z,35.90
2018-08-03T15:27:33.914Z,36.00
2018-08-03T15:30:02.585Z,36.00
2018-08-03T15:32:32.457Z,36.00
2018-08-03T15:35:01.101Z,36.00
2018-08-03T15:37:29.810Z,36.00
2018-08-03T15:39:58.537Z,36.00
2018-08-03T15:42:27.382Z,36.10
2018-08-03T15:45:02.773Z,36.10
2018-08-03T15:47:31.459Z,36.00
2018-08-03T15:50:00.181Z,36.10
2018-08-03T15:52:28.933Z,36.00
2018-08-03T15:54:57.732Z,36.10
2018-08-03T15:57:27.533Z,36.10
2018-08-03T15:59:56.321Z,36.30
2018-08-03T16:02:25.062Z,36.50
2018-08-03T16:04:53.806Z,37.10
2018-08-03T16:07:43.671Z,37.90
2018-08-03T16:10:12.453Z,38.80
2018-08-03T16:12:41.243Z,39.60
2018-08-03T16:15:09.977Z,40.30
2018-08-03T16:17:38.685Z,40.60
2018-08-03T16:20:07.517Z,41.10
2018-08-03T16:25:05.388Z,40.90
2018-08-03T16:27:34.161Z,40.80
2018-08-03T16:32:54.143Z,41.50
2018-08-03T16:35:23.166Z,41.80
2018-08-03T16:37:51.948Z,42.30
2018-08-03T16:40:20.769Z,42.50
2018-08-03T16:42:50.534Z,42.60
2018-08-03T16:45:19.340Z,42.80
2018-08-03T16:47:48.049Z,42.80
2018-08-03T16:50:17.936Z,42.90
2018-08-03T16:52:46.658Z,42.70
2018-08-03T16:55:15.405Z,42.90
2018-08-03T16:57:44.212Z,43.20
2018-08-03T17:00:19.317Z,43.30
2018-08-03T17:02:48.618Z,43.50
2018-08-03T17:05:17.357Z,43.50
2018-08-03T17:07:47.309Z,43.60
2018-08-03T17:10:16.096Z,43.30
2018-08-03T17:12:44.785Z,43.00
2018-08-03T17:15:13.486Z,42.80
2018-08-03T17:17:42.328Z,43.00
2018-08-03T17:20:11.039Z,43.20
2018-08-03T17:22:39.806Z,43.00
2018-08-03T17:25:08.555Z,43.20
2018-08-03T17:27:45.108Z,43.40
2018-08-03T17:30:13.877Z,43.70
2018-08-03T17:32:42.765Z,43.70
2018-08-03T17:35:11.544Z,43.20
2018-08-03T17:37:44.341Z,42.40
2018-08-03T17:40:13.166Z,42.30
2018-08-03T17:42:41.988Z,42.30
2018-08-03T17:45:10.701Z,42.70
2018-08-03T17:47:39.298Z,42.90
2018-08-03T17:50:08.133Z,42.80
2018-08-03T17:52:36.884Z,42.70
2018-08-03T17:55:07.769Z,42.70
2018-08-03T17:57:36.722Z,42.60
2018-08-03T18:00:27.600Z,42.60
2018-08-03T18:03:00.431Z,42.30
2018-08-03T18:05:29.316Z,42.60
2018-08-03T18:07:58.029Z,42.50
2018-08-03T18:10:26.777Z,42.40
2018-08-03T18:12:59.501Z,42.10
2018-08-03T18:15:28.254Z,41.90
2018-08-03T18:17:57.001Z,41.70
2018-08-03T18:20:25.809Z,41.60
2018-08-03T18:22:54.566Z,41.50
2018-08-03T18:25:23.333Z,41.30
2018-08-03T18:27:52.093Z,41.10
2018-08-03T18:30:26.982Z,40.70
2018-08-03T18:32:55.692Z,40.50
2018-08-03T18:35:24.446Z,40.20
2018-08-03T18:37:53.241Z,39.80
2018-08-03T18:40:21.985Z,39.10
2018-08-03T18:42:50.730Z,38.40
2018-08-03T18:45:19.638Z,37.70
2018-08-03T18:47:48.386Z,37.00
2018-08-03T18:50:17.084Z,36.40
2018-08-03T18:52:48.013Z,35.90
2018-08-03T18:55:16.781Z,35.50
2018-08-03T18:57:45.633Z,35.10
2018-08-03T19:00:14.421Z,34.80
2018-08-03T19:02:43.381Z,34.50
2018-08-03T19:05:12.194Z,34.10
2018-08-03T19:07:40.945Z,33.90
2018-08-03T19:10:09.753Z,33.60
2018-08-03T19:12:38.477Z,33.40
2018-08-03T19:15:08.714Z,33.20
2018-08-03T19:17:37.519Z,33.00
2018-08-03T19:20:07.056Z,32.80
2018-08-03T19:22:35.965Z,32.70
2018-08-03T19:27:39.077Z,32.40
2018-08-03T19:30:07.885Z,32.20
2018-08-03T19:32:36.746Z,31.90
2018-08-03T19:35:05.473Z,31.80
2018-08-03T19:37:34.251Z,31.60
2018-08-03T19:40:02.949Z,31.50
2018-08-03T19:42:31.735Z,31.40
2018-08-03T19:45:00.688Z,31.30
2018-08-03T19:47:29.438Z,31.20
2018-08-03T19:49:58.214Z,31.10
2018-08-03T19:52:27.109Z,31.10
2018-08-03T19:54:56.019Z,31.00
2018-08-03T19:57:24.721Z,30.90
2018-08-03T19:59:53.395Z,30.80
2018-08-03T20:02:23.281Z,30.80
2018-08-03T20:04:52.106Z,30.70
2018-08-03T20:07:20.906Z,30.60
2018-08-03T20:09:49.582Z,30.50
2018-08-03T20:12:18.571Z,30.40
2018-08-03T20:14:48.361Z,30.30
2018-08-03T20:17:17.119Z,30.20
2018-08-03T20:19:45.978Z,30.00
2018-08-03T20:22:17.680Z,29.90
2018-08-03T20:24:46.685Z,29.80
2018-08-03T20:27:16.021Z,29.70
2018-08-03T20:29:45.165Z,29.60
2018-08-03T20:32:14.166Z,29.50
2018-08-03T20:34:42.863Z,29.50
2018-08-03T20:37:11.653Z,29.40
2018-08-03T20:39:40.452Z,29.30
2018-08-03T20:42:09.337Z,29.30
2018-08-03T20:44:38.170Z,29.20
2018-08-03T20:47:17.761Z,29.10
2018-08-03T20:49:46.497Z,29.00
2018-08-03T20:52:15.243Z,28.90
2018-08-03T20:54:43.914Z,28.80
2018-08-03T20:57:12.611Z,28.80
2018-08-03T20:59:41.301Z,28.70
2018-08-03T21:02:10.013Z,28.60
2018-08-03T21:04:38.753Z,28.50
2018-08-03T21:07:07.449Z,28.40
2018-08-03T21:09:36.204Z,28.30
2018-08-03T21:12:04.870Z,28.20
2018-08-03T21:14:33.657Z,28.10
2018-08-03T21:17:02.433Z,28.10
2018-08-03T21:19:31.113Z,28.00
2018-08-03T21:21:59.858Z,27.90
2018-08-03T21:24:28.672Z,27.80
2018-08-03T21:27:03.745Z,27.80
2018-08-03T21:29:32.525Z,27.80
2018-08-03T21:32:01.332Z,27.70
2018-08-03T21:34:30.111Z,27.70
2018-08-03T21:37:02.873Z,27.60
2018-08-03T21:39:31.628Z,27.60
2018-08-03T21:42:00.365Z,27.60
2018-08-03T21:44:29.180Z,27.50
2018-08-03T21:46:57.917Z,27.50
2018-08-03T21:49:26.878Z,27.50
2018-08-03T21:51:59.666Z,27.40
2018-08-03T21:54:28.384Z,27.40
2018-08-03T21:56:57.219Z,27.40
2018-08-03T21:59:26.002Z,27.30
2018-08-03T22:01:54.719Z,27.30
2018-08-03T22:04:23.520Z,27.20
2018-08-03T22:06:57.084Z,27.10
2018-08-03T22:09:25.805Z,27.00
2018-08-03T22:11:54.597Z,27.00
2018-08-03T22:14:23.323Z,26.90
2018-08-03T22:16:59.590Z,26.80
2018-08-03T22:19:28.533Z,26.80
2018-08-03T22:21:57.398Z,26.80
2018-08-03T22:24:26.115Z,26.70
2018-08-03T22:26:55.066Z,26.70
2018-08-03T22:29:23.767Z,26.60
2018-08-03T22:31:52.605Z,26.60
2018-08-03T22:34:27.270Z,26.50
2018-08-03T22:36:55.963Z,26.40
2018-08-03T22:39:24.870Z,26.30
2018-08-03T22:41:53.801Z,26.30
2018-08-03T22:44:22.496Z,26.30
2018-08-03T22:46:52.241Z,26.20
2018-08-03T22:49:21.186Z,26.10
2018-08-03T22:51:49.909Z,26.10
2018-08-03T22:54:18.581Z,26.10
2018-08-03T22:56:47.493Z,26.10
2018-08-03T22:59:16.237Z,26.10
2018-08-03T23:01:45.169Z,26.00
2018-08-03T23:04:13.869Z,26.00
2018-08-03T23:06:42.534Z,26.00
2018-08-03T23:09:11.281Z,26.00
2018-08-03T23:11:50.908Z,25.90
2018-08-03T23:14:19.708Z,25.80
2018-08-03T23:16:48.409Z,25.80
2018-08-03T23:19:17.105Z,25.80
2018-08-03T23:21:45.841Z,25.70
2018-08-03T23:24:23.741Z,25.70
2018-08-03T23:26:52.434Z,25.60
2018-08-03T23:29:21.239Z,25.60
2018-08-03T23:31:49.961Z,25.60
2018-08-03T23:34:18.677Z,25.50
2018-08-03T23:36:47.459Z,25.50
2018-08-03T23:39:16.153Z,25.50
2018-08-03T23:41:44.925Z,25.40
2018-08-03T23:44:13.729Z,25.40
2018-08-03T23:46:42.503Z,25.30
2018-08-03T23:49:11.421Z,25.30
2018-08-03T23:51:40.173Z,25.30
2018-08-03T23:54:08.896Z,25.20
2018-08-03T23:56:37.678Z,25.20
2018-08-03T23:59:06.381Z,25.10
